Time;durP1;ratioP1;P1;durP2;ratioP2;P2;SDS_P1;SDS_P2;PMS_P1;PMS_P2;Temp;Humidity;BMP_temperature;BMP_pressure;BME280_temperature;BME280_humidity;BME280_pressure;Samples;Min_cycle;Max_cycle;Signal;HPM_P1;HPM_P2
2021/03/27 00:01:04;;;;;;;10.55;5.18;;;7.40;88.80;;;;;;5054162;28;20450;-77
2021/03/27 00:04:08;;;;;;;9.15;5.30;;;7.30;89.00;;;;;;5053314;28;20028;-78
2021/03/27 00:07:14;;;;;;;10.27;5.80;;;7.30;89.20;;;;;;5053141;28;20226;-77
2021/03/27 00:09:47;;;;;;;10.15;5.70;;;7.20;89.60;;;;;;5052204;28;20033;-79
2021/03/27 00:12:28;;;;;;;9.32;6.32;;;7.10;89.80;;;;;;5053080;28;20017;-78
2021/03/27 00:14:59;;;;;;;10.95;6.93;;;7.10;89.50;;;;;;5054080;28;20024;-78
2021/03/27 00:17:33;;;;;;;9.27;5.10;;;7.10;90.30;;;;;;5053128;28;20274;-77
2021/03/27 00:20:06;;;;;;;7.28;4.05;;;7.10;90.00;;;;;;5052874;28;20017;-77
2021/03/27 00:22:49;;;;;;;6.47;3.63;;;7.00;89.60;;;;;;5054374;28;20013;-78
2021/03/27 00:25:14;;;;;;;9.27;4.15;;;7.00;89.40;;;;;;5054605;28;20021;-77
2021/03/27 00:28:13;;;;;;;5.68;2.60;;;7.00;89.90;;;;;;5054725;28;20365;-78
2021/03/27 00:30:53;;;;;;;7.72;3.55;;;7.00;89.60;;;;;;5054844;28;20071;-78
2021/03/27 00:33:26;;;;;;;5.00;2.47;;;7.00;90.00;;;;;;5053061;28;20339;-77
2021/03/27 00:35:56;;;;;;;7.80;3.80;;;6.90;90.00;;;;;;5052512;28;20357;-76
2021/03/27 00:38:25;;;;;;;8.00;2.78;;;7.00;90.20;;;;;;5052436;28;20028;-77
2021/03/27 00:40:53;;;;;;;6.90;2.72;;;7.00;90.30;;;;;;5052554;28;20445;-77
2021/03/27 00:43:21;;;;;;;6.10;2.00;;;7.00;90.30;;;;;;5061526;28;20039;-77
2021/03/27 00:45:50;;;;;;;6.55;2.13;;;7.10;90.30;;;;;;5072014;28;20117;-78
2021/03/27 00:48:31;;;;;;;3.65;1.63;;;7.00;90.30;;;;;;5072447;28;20013;-77
2021/03/27 00:51:06;;;;;;;;;;;7.00;90.10;;;;;;5072788;28;20020;-77
2021/03/27 00:53:39;;;;;;;4.68;1.83;;;7.00;90.20;;;;;;5073494;28;20310;-77
2021/03/27 00:56:28;;;;;;;4.35;1.63;;;6.90;90.30;;;;;;5073468;28;20074;-77
2021/03/27 00:59:13;;;;;;;3.08;1.50;;;6.90;90.10;;;;;;5072236;28;20380;-77
2021/03/27 01:01:42;;;;;;;4.40;1.30;;;6.90;90.20;;;;;;5072490;28;20103;-77
2021/03/27 01:04:12;;;;;;;4.72;1.52;;;6.90;90.10;;;;;;5071991;28;20020;-77
2021/03/27 01:06:44;;;;;;;2.43;1.10;;;6.90;90.10;;;;;;5071822;28;20492;-78
2021/03/27 01:09:11;;;;;;;5.07;1.27;;;6.80;90.10;;;;;;5072336;28;20372;-78
2021/03/27 01:11:42;;;;;;;2.60;1.70;;;6.80;90.20;;;;;;5072168;28;20522;-78
2021/03/27 01:14:13;;;;;;;4.15;1.67;;;6.80;90.30;;;;;;5071976;28;20063;-78
2021/03/27 01:16:45;;;;;;;9.68;2.30;;;6.80;90.40;;;;;;5072162;28;20062;-78
2021/03/27 01:19:40;;;;;;;5.43;2.47;;;6.80;90.60;;;;;;5072047;28;20235;-78
2021/03/27 01:22:08;;;;;;;6.13;3.78;;;6.80;90.60;;;;;;5072635;28;20058;-78
2021/03/27 01:24:34;;;;;;;9.60;5.20;;;6.80;90.90;;;;;;5072068;28;20013;-78
2021/03/27 01:27:22;;;;;;;10.02;5.20;;;6.70;90.70;;;;;;5071651;28;20059;-78
2021/03/27 01:30:02;;;;;;;11.02;5.57;;;6.70;90.80;;;;;;5071667;28;20372;-78
2021/03/27 01:32:51;;;;;;;11.93;5.45;;;6.70;90.90;;;;;;5072943;28;20028;-78
2021/03/27 01:35:32;;;;;;;15.10;7.97;;;6.70;91.00;;;;;;5071878;28;20025;-78
2021/03/27 01:38:12;;;;;;;10.25;6.38;;;6.70;91.30;;;;;;5071242;28;20070;-78
2021/03/27 01:40:59;;;;;;;14.98;6.72;;;6.70;90.90;;;;;;5072881;28;20022;-78
2021/03/27 01:43:35;;;;;;;13.60;8.15;;;6.70;90.90;;;;;;5072580;28;20044;-78
2021/03/27 01:46:19;;;;;;;18.42;7.45;;;6.70;91.00;;;;;;5071365;28;20062;-79
2021/03/27 01:48:51;;;;;;;12.27;7.53;;;6.80;91.00;;;;;;5072779;28;20028;-78
2021/03/27 01:51:36;;;;;;;15.45;8.52;;;6.80;90.80;;;;;;5073089;28;20029;-79
2021/03/27 01:54:16;;;;;;;17.70;8.52;;;6.80;91.00;;;;;;5070856;28;20017;-78
2021/03/27 01:57:04;;;;;;;15.23;10.43;;;6.80;90.90;;;;;;5070953;28;20029;-79
2021/03/27 01:59:35;;;;;;;19.88;11.45;;;6.80;90.90;;;;;;5060581;28;20263;-78
2021/03/27 02:02:36;;;;;;;16.55;10.23;;;6.80;90.70;;;;;;5071037;28;20348;-78
2021/03/27 02:05:45;;;;;;;21.20;11.80;;;6.80;90.70;;;;;;5066083;28;20365;-78
2021/03/27 02:08:19;;;;;;;15.98;11.48;;;6.80;90.60;;;;;;5070465;28;20435;-78
2021/03/27 02:11:02;;;;;;;22.73;12.48;;;6.80;90.70;;;;;;5071181;28;20016;-77
2021/03/27 02:13:44;;;;;;;19.63;11.55;;;6.80;90.80;;;;;;5071165;28;20048;-78
2021/03/27 02:16:18;;;;;;;16.98;11.35;;;6.80;90.70;;;;;;5072423;28;20096;-78
2021/03/27 02:19:15;;;;;;;20.08;12.50;;;6.80;90.80;;;;;;5071288;28;20044;-78
2021/03/27 02:22:14;;;;;;;20.92;11.68;;;6.80;90.80;;;;;;5071344;28;20021;-78
2021/03/27 02:25:07;;;;;;;23.00;13.02;;;6.80;90.60;;;;;;5074609;28;20047;-78
2021/03/27 02:27:46;;;;;;;21.92;12.27;;;6.80;90.80;;;;;;5075927;28;20029;-79
2021/03/27 02:30:13;;;;;;;16.75;11.88;;;6.80;90.70;;;;;;5074772;28;20021;-79
2021/03/27 02:33:02;;;;;;;11.98;7.30;;;6.80;90.80;;;;;;5071856;28;20395;-78
2021/03/27 02:35:56;;;;;;;13.23;7.93;;;6.80;90.10;;;;;;5072107;28;20021;-78
2021/03/27 02:38:27;;;;;;;16.38;9.65;;;6.70;88.90;;;;;;5072106;28;20047;-79
2021/03/27 02:41:05;;;;;;;16.98;9.93;;;6.60;89.50;;;;;;5071680;28;20024;-77
2021/03/27 02:43:41;;;;;;;19.52;11.75;;;6.60;90.00;;;;;;5065177;28;20032;-78
2021/03/27 02:46:35;;;;;;;18.58;9.18;;;6.50;90.30;;;;;;5052068;28;20017;-78
2021/03/27 02:49:09;;;;;;;20.35;10.90;;;6.50;90.60;;;;;;5050638;28;20036;-78
2021/03/27 02:51:41;;;;;;;22.45;12.35;;;6.50;90.50;;;;;;5051891;28;20063;-78
2021/03/27 02:54:16;;;;;;;23.70;11.73;;;6.50;90.80;;;;;;5050640;28;20453;-78
2021/03/27 02:57:13;;;;;;;21.52;11.95;;;6.50;91.00;;;;;;5050750;28;20021;-79
2021/03/27 03:00:08;;;;;;;18.73;9.52;;;6.50;91.10;;;;;;5052117;28;20047;-78
2021/03/27 03:03:06;;;;;;;21.17;11.07;;;6.50;91.10;;;;;;5050932;28;20361;-78
2021/03/27 03:05:39;;;;;;;23.88;11.90;;;6.50;91.20;;;;;;5049917;28;20040;-78
2021/03/27 03:08:23;;;;;;;16.55;9.77;;;6.50;91.20;;;;;;5051488;28;20582;-78
2021/03/27 03:11:13;;;;;;;14.60;9.43;;;6.50;91.10;;;;;;5052071;28;20353;-78
2021/03/27 03:14:20;;;;;;;21.33;11.48;;;6.50;91.10;;;;;;5050710;28;20057;-79
2021/03/27 03:16:57;;;;;;;20.33;10.85;;;6.40;91.20;;;;;;5032470;28;20040;-78
2021/03/27 03:19:33;;;;;;;21.95;10.68;;;6.40;91.20;;;;;;5049173;28;20024;-78
2021/03/27 03:22:32;;;;;;;21.20;11.65;;;6.30;91.30;;;;;;5058661;28;20083;-78
2021/03/27 03:25:03;;;;;;;19.50;10.03;;;6.30;91.30;;;;;;5050585;28;20028;-78
2021/03/27 03:27:47;;;;;;;18.00;10.40;;;6.30;91.40;;;;;;5051811;28;20021;-79
2021/03/27 03:30:23;;;;;;;16.67;9.10;;;6.30;91.40;;;;;;5050249;28;20120;-78
2021/03/27 03:33:36;;;;;;;21.45;9.45;;;6.30;91.30;;;;;;5050393;28;20043;-79
2021/03/27 03:36:10;;;;;;;19.85;11.18;;;6.30;91.30;;;;;;5050278;28;20021;-79
2021/03/27 03:38:48;;;;;;;25.63;9.80;;;6.30;91.20;;;;;;5050322;28;20029;-78
2021/03/27 03:41:29;;;;;;;18.10;11.18;;;6.30;91.30;;;;;;5049755;28;20017;-79
2021/03/27 03:44:04;;;;;;;19.95;10.02;;;6.40;91.40;;;;;;5052037;28;20365;-78
2021/03/27 03:46:51;;;;;;;17.05;9.45;;;6.40;91.30;;;;;;5053931;28;20020;-78
2021/03/27 03:49:40;;;;;;;22.23;10.65;;;6.40;91.10;;;;;;5053621;28;20453;-78
2021/03/27 03:52:34;;;;;;;24.75;11.60;;;6.40;91.20;;;;;;5055002;28;20054;-79
2021/03/27 03:55:21;;;;;;;23.63;11.38;;;6.40;91.20;;;;;;5053583;28;20036;-78
2021/03/27 03:58:09;;;;;;;25.20;11.65;;;6.50;91.20;;;;;;5053700;28;20017;-77
2021/03/27 04:00:45;;;;;;;21.73;11.77;;;6.50;91.20;;;;;;5054056;28;20044;-78
2021/03/27 04:03:27;;;;;;;26.05;12.50;;;6.50;91.30;;;;;;5055071;28;20024;-78
2021/03/27 04:06:00;;;;;;;28.60;13.00;;;6.50;91.20;;;;;;5053550;28;20037;-78
2021/03/27 04:08:35;;;;;;;24.50;12.27;;;6.50;91.50;;;;;;5053494;28;20056;-78
2021/03/27 04:11:08;;;;;;;22.30;11.90;;;6.50;91.10;;;;;;5054805;28;20020;-78
2021/03/27 04:13:45;;;;;;;21.38;11.75;;;6.50;91.10;;;;;;5053330;28;20016;-78
2021/03/27 04:16:17;;;;;;;30.17;10.93;;;6.50;91.00;;;;;;5054662;28;20024;-79
2021/03/27 04:19:11;;;;;;;21.95;10.98;;;6.50;90.90;;;;;;5055087;28;20122;-79
2021/03/27 04:21:49;;;;;;;19.67;9.88;;;6.60;90.90;;;;;;5053942;28;20071;-78
2021/03/27 04:24:29;;;;;;;22.00;9.95;;;6.60;90.80;;;;;;5054245;28;20021;-79
2021/03/27 04:27:29;;;;;;;16.27;9.50;;;6.60;90.80;;;;;;5054778;28;20103;-76
2021/03/27 04:30:10;;;;;;;27.58;11.98;;;6.60;90.70;;;;;;5052177;28;20064;-76
2021/03/27 04:32:57;;;;;;;23.52;10.27;;;6.50;90.80;;;;;;5053029;28;20017;-77
2021/03/27 04:35:50;;;;;;;23.25;10.68;;;6.50;90.90;;;;;;5052932;28;20055;-78
2021/03/27 04:38:35;;;;;;;22.30;11.32;;;6.40;90.90;;;;;;5053803;28;20029;-77
2021/03/27 04:41:07;;;;;;;23.27;10.85;;;6.40;90.80;;;;;;5052747;28;20376;-78
2021/03/27 04:43:44;;;;;;;20.52;9.88;;;6.50;90.80;;;;;;5053944;28;20033;-78
2021/03/27 04:46:22;;;;;;;21.58;10.23;;;6.40;90.90;;;;;;5053779;28;20075;-78
2021/03/27 04:48:57;;;;;;;20.30;8.75;;;6.40;90.80;;;;;;5052699;28;20043;-77
2021/03/27 04:51:41;;;;;;;21.00;9.00;;;6.40;90.80;;;;;;5052493;28;20017;-77
2021/03/27 04:54:33;;;;;;;16.02;9.13;;;6.40;90.70;;;;;;5052891;28;20071;-77
2021/03/27 04:57:04;;;;;;;25.25;8.77;;;6.40;90.70;;;;;;5053601;28;20457;-77
2021/03/27 04:59:58;;;;;;;24.25;8.15;;;6.40;90.70;;;;;;5052539;28;20021;-77
2021/03/27 05:02:53;;;;;;;17.88;8.75;;;6.40;91.00;;;;;;5052490;28;20377;-77
2021/03/27 05:05:43;;;;;;;21.30;9.13;;;6.40;90.70;;;;;;5051910;28;20204;-76
2021/03/27 05:08:35;;;;;;;17.50;7.60;;;6.40;90.60;;;;;;5052042;28;20086;-77
2021/03/27 05:11:23;;;;;;;19.90;8.25;;;6.40;90.60;;;;;;5052251;28;20077;-76
2021/03/27 05:14:35;;;;;;;20.05;7.72;;;6.40;90.50;;;;;;5052058;28;20017;-76
2021/03/27 05:17:42;;;;;;;20.92;7.57;;;6.50;90.50;;;;;;5073083;28;20515;-76
2021/03/27 05:20:20;;;;;;;21.73;7.03;;;6.50;90.50;;;;;;5054470;28;20028;-77
2021/03/27 05:23:19;;;;;;;20.00;7.53;;;6.50;90.50;;;;;;5056376;28;20041;-76
2021/03/27 05:25:45;;;;;;;19.70;6.55;;;6.50;90.50;;;;;;5052227;28;20025;-77
2021/03/27 05:28:43;;;;;;;28.88;7.85;;;6.50;90.70;;;;;;5051771;28;20028;-77
2021/03/27 05:31:37;;;;;;;9.45;4.00;;;6.50;91.10;;;;;;5052940;28;20095;-76
2021/03/27 05:34:28;;;;;;;19.00;6.85;;;6.40;90.30;;;;;;5051823;28;20017;-76
2021/03/27 05:37:11;;;;;;;21.05;4.50;;;6.40;90.00;;;;;;5051520;28;20052;-76
2021/03/27 05:39:58;;;;;;;11.52;3.45;;;6.30;89.50;;;;;;5052741;28;20045;-76
2021/03/27 05:42:55;;;;;;;18.13;4.82;;;6.30;90.00;;;;;;5051092;28;20099;-77
2021/03/27 05:45:48;;;;;;;15.32;4.40;;;6.20;90.30;;;;;;5051161;28;20135;-78
2021/03/27 05:48:32;;;;;;;13.75;3.38;;;6.20;90.40;;;;;;5051028;28;20033;-77
2021/03/27 05:51:20;;;;;;;10.65;3.42;;;6.10;90.60;;;;;;5051678;28;20055;-78
2021/03/27 05:54:12;;;;;;;13.02;4.00;;;6.10;90.80;;;;;;5052880;28;20028;-77
2021/03/27 05:56:56;;;;;;;17.95;3.92;;;6.10;90.80;;;;;;5051584;28;20457;-77
2021/03/27 05:59:27;;;;;;;9.75;3.40;;;6.10;90.80;;;;;;5051251;28;20468;-77
2021/03/27 06:02:16;;;;;;;21.83;4.65;;;6.10;90.70;;;;;;5051449;28;20029;-78
2021/03/27 06:05:16;;;;;;;13.05;3.35;;;6.10;90.70;;;;;;5051459;28;20354;-77
2021/03/27 06:08:02;;;;;;;14.07;3.50;;;6.20;90.80;;;;;;5051043;28;20036;-78
2021/03/27 06:10:34;;;;;;;15.25;4.03;;;6.20;91.10;;;;;;5051451;28;20425;-78
2021/03/27 06:13:19;;;;;;;14.98;3.70;;;6.20;90.60;;;;;;5051372;28;20116;-78
2021/03/27 06:16:09;;;;;;;11.65;3.47;;;6.20;90.50;;;;;;5051913;28;20108;-77
2021/03/27 06:18:53;;;;;;;21.13;3.47;;;6.20;90.40;;;;;;5051369;28;20016;-78
2021/03/27 06:21:37;;;;;;;16.08;2.95;;;6.20;90.10;;;;;;5052099;28;20023;-78
2021/03/27 06:24:50;;;;;;;16.67;3.50;;;6.20;88.70;;;;;;5051150;28;20108;-79
2021/03/27 06:27:25;;;;;;;16.77;3.42;;;6.30;88.70;;;;;;5050434;28;20028;-79
2021/03/27 06:30:14;;;;;;;16.67;3.53;;;6.30;89.00;;;;;;5051220;28;20035;-79
2021/03/27 06:32:49;;;;;;;16.65;2.70;;;6.20;87.00;;;;;;5052583;28;20053;-79
2021/03/27 06:35:55;;;;;;;10.25;2.50;;;6.20;85.90;;;;;;5051036;28;20021;-79
2021/03/27 06:38:58;;;;;;;7.68;2.13;;;6.20;86.30;;;;;;5050748;28;20030;-78
2021/03/27 06:42:01;;;;;;;12.65;2.33;;;6.10;85.90;;;;;;5052215;28;20651;-77
2021/03/27 06:45:04;;;;;;;13.48;3.25;;;6.00;86.80;;;;;;5052158;28;20092;-77
2021/03/27 06:47:44;;;;;;;9.85;2.67;;;5.90;87.40;;;;;;5051850;28;20471;-77
2021/03/27 06:50:34;;;;;;;12.32;2.80;;;5.90;87.20;;;;;;5051739;28;20048;-77
2021/03/27 06:53:22;;;;;;;10.77;3.08;;;5.80;86.60;;;;;;5050768;28;20014;-78
2021/03/27 06:55:59;;;;;;;10.00;3.50;;;5.80;87.20;;;;;;5051231;28;20044;-78
2021/03/27 06:58:42;;;;;;;16.50;3.10;;;5.80;86.50;;;;;;5050723;28;20402;-78
2021/03/27 07:01:26;;;;;;;11.82;2.95;;;5.80;86.90;;;;;;5052434;28;20017;-78
2021/03/27 07:04:19;;;;;;;15.52;2.63;;;5.70;86.80;;;;;;5051232;28;20519;-77
2021/03/27 07:07:06;;;;;;;8.82;2.30;;;5.70;86.90;;;;;;5050516;28;20052;-78
2021/03/27 07:10:03;;;;;;;11.35;2.20;;;5.60;87.40;;;;;;5050406;28;20036;-78
2021/03/27 07:12:59;;;;;;;11.43;3.00;;;5.50;87.20;;;;;;5049951;28;20108;-77
2021/03/27 07:15:49;;;;;;;10.98;2.90;;;5.50;87.70;;;;;;5050724;28;20105;-78
2021/03/27 07:18:34;;;;;;;;;;;5.60;88.50;;;;;;5053728;28;20383;-79
2021/03/27 07:21:24;;;;;;;16.85;3.17;;;5.80;88.20;;;;;;5054285;28;19900;-80
2021/03/27 07:24:19;;;;;;;10.60;2.17;;;6.10;87.20;;;;;;5054705;28;20013;-79
2021/03/27 07:26:54;;;;;;;11.38;2.47;;;6.30;86.70;;;;;;5055188;28;20276;-79
2021/03/27 07:29:48;;;;;;;13.20;3.25;;;6.50;85.90;;;;;;5054875;28;20109;-79
2021/03/27 07:32:39;;;;;;;12.80;2.60;;;6.70;84.40;;;;;;5054144;28;20017;-78
2021/03/27 07:35:41;;;;;;;13.30;3.00;;;6.90;84.50;;;;;;5053942;28;20074;-78
2021/03/27 07:38:31;;;;;;;12.98;3.75;;;7.10;83.30;;;;;;5053847;28;20056;-78
2021/03/27 07:41:18;;;;;;;15.07;3.67;;;7.30;82.70;;;;;;5053962;28;20029;-77
2021/03/27 07:44:20;;;;;;;13.48;3.03;;;7.40;83.20;;;;;;5054759;28;20025;-78
2021/03/27 07:47:20;;;;;;;14.65;3.67;;;7.50;81.60;;;;;;5054682;28;20021;-78
2021/03/27 07:49:54;;;;;;;17.55;4.57;;;7.50;80.80;;;;;;5053603;28;20067;-79
2021/03/27 07:52:38;;;;;;;18.70;3.65;;;7.40;80.70;;;;;;5053336;28;20145;-78
2021/03/27 07:55:38;;;;;;;15.63;4.22;;;7.30;81.70;;;;;;5054412;28;20016;-79
2021/03/27 07:58:32;;;;;;;15.15;3.35;;;7.30;82.30;;;;;;5053304;28;20029;-78
2021/03/27 08:01:12;;;;;;;15.55;3.10;;;7.40;81.70;;;;;;5054655;28;20029;-78
2021/03/27 08:04:25;;;;;;;16.15;3.33;;;7.50;82.60;;;;;;5054036;28;20012;-78
2021/03/27 08:07:15;;;;;;;17.40;3.97;;;7.60;80.80;;;;;;5053369;28;20358;-76
2021/03/27 08:10:07;;;;;;;18.50;3.33;;;7.60;79.90;;;;;;5054594;28;20471;-78
2021/03/27 08:13:00;;;;;;;16.05;2.80;;;7.50;81.80;;;;;;5056090;28;20078;-78
2021/03/27 08:15:57;;;;;;;12.15;3.05;;;7.40;79.90;;;;;;5052633;28;20013;-77
2021/03/27 08:18:44;;;;;;;16.02;4.15;;;7.30;80.50;;;;;;5053126;28;20146;-78
2021/03/27 08:21:26;;;;;;;12.48;2.55;;;7.30;80.10;;;;;;5057739;28;20017;-78
2021/03/27 08:24:03;;;;;;;17.73;4.40;;;7.30;80.30;;;;;;5056087;28;20024;-77
2021/03/27 08:26:50;;;;;;;13.98;3.22;;;7.20;81.00;;;;;;5054316;28;20075;-78
2021/03/27 08:29:43;;;;;;;15.73;3.97;;;7.20;81.30;;;;;;5051430;28;20163;-77
2021/03/27 08:32:46;;;;;;;15.85;3.78;;;7.20;81.90;;;;;;5053825;28;20063;-77
2021/03/27 08:35:26;;;;;;;21.08;3.42;;;7.30;82.20;;;;;;5052476;28;20424;-78
2021/03/27 08:38:11;;;;;;;14.32;2.55;;;7.20;82.70;;;;;;5052616;28;20021;-78
2021/03/27 08:40:42;;;;;;;13.32;3.22;;;7.20;80.00;;;;;;5052775;28;20119;-78
2021/03/27 08:43:38;;;;;;;16.27;3.42;;;6.90;80.10;;;;;;5052314;28;20092;-77
2021/03/27 08:46:40;;;;;;;20.98;5.43;;;6.80;80.20;;;;;;5052322;28;20516;-77
2021/03/27 08:49:36;;;;;;;13.93;3.15;;;6.70;78.90;;;;;;5053185;28;20033;-77
2021/03/27 08:52:02;;;;;;;10.32;2.53;;;6.50;79.20;;;;;;5052339;28;20044;-76
2021/03/27 08:54:53;;;;;;;8.75;2.45;;;6.60;78.60;;;;;;5052029;28;20366;-77
2021/03/27 08:57:21;;;;;;;13.52;2.50;;;6.80;78.50;;;;;;5051991;28;20083;-78
2021/03/27 09:00:14;;;;;;;13.32;2.22;;;6.80;77.20;;;;;;5052141;28;20083;-78
2021/03/27 09:03:01;;;;;;;12.25;2.40;;;6.70;78.10;;;;;;5052173;28;20361;-77
2021/03/27 09:05:49;;;;;;;13.10;2.80;;;6.60;78.80;;;;;;5051367;28;20379;-76
2021/03/27 09:08:46;;;;;;;7.38;1.75;;;6.60;79.80;;;;;;5053506;28;20028;-76
2021/03/27 09:11:27;;;;;;;10.20;2.88;;;6.70;81.90;;;;;;5052052;28;20021;-79
2021/03/27 09:14:15;;;;;;;14.70;2.75;;;6.60;80.40;;;;;;5050682;28;20043;-77
2021/03/27 09:17:05;;;;;;;13.13;2.50;;;6.50;83.70;;;;;;5071916;28;20525;-76
2021/03/27 09:19:49;;;;;;;15.85;3.08;;;6.40;83.20;;;;;;5072209;28;20475;-79
2021/03/27 09:22:38;;;;;;;11.70;2.30;;;6.40;84.10;;;;;;5071990;28;20050;-78
2021/03/27 09:25:18;;;;;;;16.90;4.15;;;6.50;85.00;;;;;;5073046;28;20104;-79
2021/03/27 09:28:24;;;;;;;19.48;2.90;;;6.80;85.90;;;;;;5071911;28;20012;-78
2021/03/27 09:31:21;;;;;;;14.73;3.20;;;7.40;82.40;;;;;;5072123;28;20016;-78
2021/03/27 09:34:09;;;;;;;14.90;2.50;;;8.00;79.30;;;;;;5071736;28;20024;-79
2021/03/27 09:37:01;;;;;;;8.40;2.30;;;8.20;77.90;;;;;;5071774;28;20465;-79
2021/03/27 09:39:39;;;;;;;16.98;4.40;;;8.60;75.00;;;;;;5071697;28;20029;-75
2021/03/27 09:42:07;;;;;;;19.58;3.72;;;8.70;73.40;;;;;;5071187;28;20012;-80
2021/03/27 09:44:48;;;;;;;19.38;3.78;;;8.90;73.10;;;;;;5053298;28;20062;-79
2021/03/27 09:47:18;;;;;;;;;;;9.20;72.30;;;;;;5051610;28;20024;-76
2021/03/27 09:49:55;;;;;;;13.55;2.85;;;9.50;73.30;;;;;;5051240;28;20361;-77
2021/03/27 09:52:42;;;;;;;10.57;2.88;;;10.00;72.50;;;;;;5051262;28;20028;-79
2021/03/27 09:55:53;;;;;;;16.85;2.83;;;10.40;71.20;;;;;;5052106;28;20028;-77
2021/03/27 09:58:37;;;;;;;14.75;4.18;;;10.40;71.20;;;;;;5050589;28;20028;-78
2021/03/27 10:01:23;;;;;;;13.98;3.42;;;10.10;68.10;;;;;;5051022;28;20017;-76
2021/03/27 10:04:21;;;;;;;12.23;2.53;;;9.50;69.00;;;;;;5051043;28;20330;-77
2021/03/27 10:07:24;;;;;;;9.35;1.90;;;9.30;65.70;;;;;;5052463;28;20193;-76
2021/03/27 10:10:12;;;;;;;11.45;2.47;;;9.40;68.10;;;;;;5052272;28;20132;-76
2021/03/27 10:12:58;;;;;;;9.90;2.78;;;9.80;63.20;;;;;;5052137;28;20024;-76
2021/03/27 10:15:40;;;;;;;13.88;2.58;;;10.10;66.70;;;;;;5052043;28;20048;-77
2021/03/27 10:18:31;;;;;;;12.75;2.42;;;10.40;62.20;;;;;;5051603;28;20350;-78
2021/03/27 10:21:21;;;;;;;15.80;3.00;;;10.60;62.70;;;;;;5052027;28;20033;-77
2021/03/27 10:23:54;;;;;;;9.90;3.10;;;10.60;62.10;;;;;;5050843;28;20067;-77
2021/03/27 10:26:29;;;;;;;10.00;2.30;;;10.80;61.10;;;;;;5051700;28;20021;-77
2021/03/27 10:29:10;;;;;;;11.50;2.88;;;11.00;59.90;;;;;;5051950;28;20036;-78
2021/03/27 10:31:42;;;;;;;9.88;2.40;;;10.80;58.30;;;;;;5050853;28;20025;-78
2021/03/27 10:34:35;;;;;;;6.75;1.90;;;10.60;60.00;;;;;;5051986;28;20334;-78
2021/03/27 10:37:17;;;;;;;10.68;2.10;;;10.20;55.40;;;;;;5050705;28;20020;-76
2021/03/27 10:40:17;;;;;;;8.52;1.90;;;10.10;56.00;;;;;;5051877;28;20021;-76
2021/03/27 10:43:25;;;;;;;7.82;1.77;;;10.00;54.30;;;;;;5051179;28;20116;-77
2021/03/27 10:46:09;;;;;;;10.88;1.88;;;10.00;70.60;;;;;;5050240;28;20028;-77
2021/03/27 10:48:40;;;;;;;9.52;2.10;;;10.20;59.90;;;;;;5052179;28;20112;-76
2021/03/27 10:51:22;;;;;;;11.65;2.00;;;10.60;61.00;;;;;;5051309;28;20102;-77
2021/03/27 10:53:53;;;;;;;9.75;2.55;;;11.20;58.10;;;;;;5061983;28;20021;-77
2021/03/27 10:56:53;;;;;;;8.93;2.10;;;11.70;53.60;;;;;;5060005;28;20028;-78
2021/03/27 10:59:25;;;;;;;10.02;2.55;;;12.00;49.40;;;;;;5054704;28;20024;-77
2021/03/27 11:02:15;;;;;;;15.90;1.85;;;12.10;51.10;;;;;;5057106;28;20021;-77
2021/03/27 11:05:20;;;;;;;8.35;1.88;;;12.20;55.70;;;;;;5054350;28;20017;-77
2021/03/27 11:08:31;;;;;;;13.63;2.22;;;12.00;47.90;;;;;;5056528;28;20049;-78
2021/03/27 11:11:34;;;;;;;8.80;1.65;;;11.70;56.00;;;;;;5036271;28;20107;-78
2021/03/27 11:14:37;;;;;;;10.85;2.10;;;11.30;53.20;;;;;;5054232;28;20025;-77
2021/03/27 11:17:15;;;;;;;10.07;2.00;;;11.00;53.30;;;;;;5054157;28;20017;-77
2021/03/27 11:19:59;;;;;;;9.45;1.70;;;10.90;50.70;;;;;;5055487;28;20024;-78
2021/03/27 11:22:30;;;;;;;13.13;1.60;;;10.80;52.60;;;;;;5055263;28;20029;-77
2021/03/27 11:25:14;;;;;;;9.15;1.70;;;10.70;55.30;;;;;;5055307;28;20060;-78
2021/03/27 11:27:59;;;;;;;11.75;1.77;;;10.70;52.20;;;;;;5053879;28;20067;-78
2021/03/27 11:30:46;;;;;;;9.10;2.80;;;11.00;64.10;;;;;;5053745;28;20060;-78
2021/03/27 11:33:32;;;;;;;10.30;1.88;;;11.50;54.20;;;;;;5055238;28;20369;-77
2021/03/27 11:36:09;;;;;;;8.48;1.90;;;11.80;49.30;;;;;;5049551;28;20060;-77
2021/03/27 11:38:43;;;;;;;8.57;1.77;;;11.70;51.50;;;;;;5055361;28;20025;-77
2021/03/27 11:41:30;;;;;;;11.25;2.72;;;11.30;54.90;;;;;;5053122;28;20021;-77
2021/03/27 11:44:15;;;;;;;8.50;1.85;;;11.00;51.30;;;;;;5053246;28;20040;-76
2021/03/27 11:46:53;;;;;;;8.88;2.40;;;10.70;62.70;;;;;;5053443;28;20024;-77
2021/03/27 11:49:24;;;;;;;11.55;1.73;;;10.40;70.90;;;;;;5054533;28;20116;-77
2021/03/27 11:51:55;;;;;;;9.07;2.05;;;10.20;60.60;;;;;;5053408;28;20028;-76
2021/03/27 11:54:43;;;;;;;14.98;2.72;;;9.80;59.10;;;;;;5053143;28;20017;-77
2021/03/27 11:57:31;;;;;;;9.05;1.80;;;9.30;63.00;;;;;;5054041;28;20017;-77
2021/03/27 12:00:47;;;;;;;12.02;2.65;;;9.10;70.20;;;;;;5053785;28;20480;-77
2021/03/27 12:03:24;;;;;;;16.25;3.63;;;9.00;68.50;;;;;;5052150;28;20372;-77
2021/03/27 12:05:54;;;;;;;9.10;2.70;;;9.00;63.90;;;;;;5052655;28;20515;-76
2021/03/27 12:08:29;;;;;;;12.90;3.03;;;8.90;66.30;;;;;;5053982;28;20049;-77
2021/03/27 12:11:20;;;;;;;11.30;3.45;;;9.00;64.20;;;;;;5053155;28;20021;-75
2021/03/27 12:14:03;;;;;;;12.15;2.47;;;9.10;65.10;;;;;;5054562;28;20021;-75
2021/03/27 12:16:49;;;;;;;9.18;1.83;;;9.20;64.40;;;;;;5052652;28;20028;-75
2021/03/27 12:19:31;;;;;;;15.88;2.40;;;9.30;62.60;;;;;;5052728;28;20017;-77
2021/03/27 12:22:29;;;;;;;11.40;1.90;;;9.30;63.00;;;;;;5053483;28;20043;-79
2021/03/27 12:25:23;;;;;;;12.13;2.47;;;9.40;65.90;;;;;;5054751;28;20465;-77
2021/03/27 12:28:03;;;;;;;12.43;2.40;;;9.50;64.30;;;;;;5056478;28;20068;-77
2021/03/27 12:30:48;;;;;;;9.70;2.50;;;9.30;70.40;;;;;;5054097;28;20021;-77
2021/03/27 12:33:36;;;;;;;14.63;2.20;;;9.00;70.40;;;;;;5052512;28;20484;-76
2021/03/27 12:36:19;;;;;;;14.43;2.72;;;8.70;69.00;;;;;;5052744;28;20407;-78
2021/03/27 12:39:05;;;;;;;15.95;2.47;;;8.80;70.60;;;;;;5052768;28;20024;-77
2021/03/27 12:41:39;;;;;;;19.23;2.92;;;9.00;72.60;;;;;;5052313;28;20027;-77
2021/03/27 12:44:07;;;;;;;11.95;2.33;;;8.90;70.20;;;;;;5052441;28;20079;-77
2021/03/27 12:46:58;;;;;;;15.25;3.95;;;9.10;69.60;;;;;;5052721;28;20025;-78
2021/03/27 12:49:30;;;;;;;;;;;9.20;70.20;;;;;;5052806;28;20021;-77
2021/03/27 12:52:14;;;;;;;16.77;3.50;;;9.40;69.80;;;;;;5052504;28;19911;-76
2021/03/27 12:54:42;;;;;;;17.00;3.20;;;9.50;70.40;;;;;;5053894;28;20099;-76
2021/03/27 12:57:35;;;;;;;12.68;2.38;;;9.50;73.50;;;;;;5052172;28;20029;-76
2021/03/27 13:00:20;;;;;;;12.60;2.08;;;9.40;69.20;;;;;;5052758;28;20461;-77
2021/03/27 13:03:04;;;;;;;11.93;2.92;;;9.30;71.40;;;;;;5062136;28;20044;-76
2021/03/27 13:05:32;;;;;;;17.48;3.15;;;9.20;72.20;;;;;;5056116;28;20033;-76
2021/03/27 13:08:32;;;;;;;11.57;2.50;;;9.20;69.90;;;;;;5056652;28;20127;-76
2021/03/27 13:11:18;;;;;;;17.73;3.50;;;9.10;68.20;;;;;;5052457;28;20480;-75
2021/03/27 13:13:49;;;;;;;14.77;2.33;;;9.10;66.50;;;;;;5053450;28;20464;-77
2021/03/27 13:16:18;;;;;;;15.65;3.30;;;9.00;69.90;;;;;;5052972;28;20041;-80
2021/03/27 13:18:53;;;;;;;11.63;3.20;;;9.00;64.60;;;;;;5053917;28;20108;-77
2021/03/27 13:21:35;;;;;;;13.57;1.92;;;9.00;65.50;;;;;;5071801;28;20415;-78
2021/03/27 13:24:22;;;;;;;15.68;3.15;;;9.50;69.70;;;;;;5073327;28;20020;-79
2021/03/27 13:26:51;;;;;;;11.13;2.00;;;10.10;62.60;;;;;;5072002;28;20047;-78
2021/03/27 13:29:32;;;;;;;11.70;3.45;;;10.60;60.90;;;;;;5072005;28;20051;-79
2021/03/27 13:32:16;;;;;;;12.88;2.00;;;10.90;59.20;;;;;;5066187;28;20085;-77
2021/03/27 13:35:04;;;;;;;13.63;3.17;;;11.20;59.80;;;;;;5062332;28;20043;-76
2021/03/27 13:37:48;;;;;;;12.43;2.53;;;11.20;59.40;;;;;;5072023;28;20074;-80
2021/03/27 13:40:30;;;;;;;11.43;2.75;;;11.30;58.10;;;;;;5072796;28;20357;-76
2021/03/27 13:43:26;;;;;;;10.23;2.47;;;11.60;59.90;;;;;;5071679;28;20361;-78
2021/03/27 13:46:14;;;;;;;8.50;1.90;;;11.90;57.60;;;;;;5071456;28;20415;-79
2021/03/27 13:48:50;;;;;;;11.25;2.22;;;12.30;58.90;;;;;;5071918;28;20012;-79
2021/03/27 13:51:42;;;;;;;12.27;2.60;;;12.20;55.00;;;;;;5072211;28;20031;-79
2021/03/27 13:54:29;;;;;;;13.10;2.60;;;12.00;53.30;;;;;;5072712;28;20154;-78
2021/03/27 13:57:21;;;;;;;12.38;3.45;;;11.70;57.40;;;;;;5070461;28;20111;-78
2021/03/27 13:59:54;;;;;;;12.38;3.10;;;11.60;53.10;;;;;;5074581;28;20372;-78
2021/03/27 14:02:55;;;;;;;10.65;2.53;;;11.40;54.90;;;;;;5070104;28;20107;-78
2021/03/27 14:06:02;;;;;;;11.70;2.33;;;11.10;54.80;;;;;;5069870;28;20126;-77
2021/03/27 14:08:44;;;;;;;15.90;2.75;;;10.90;56.60;;;;;;5070509;28;20124;-77
2021/03/27 14:11:25;;;;;;;11.07;2.45;;;10.80;58.70;;;;;;5070857;28;20016;-81
2021/03/27 14:13:57;;;;;;;9.02;2.10;;;10.70;59.90;;;;;;5070980;28;20032;-79
2021/03/27 14:16:47;;;;;;;10.48;2.33;;;10.80;60.40;;;;;;5072067;28;20013;-78